Time;durP1;ratioP1;P1;durP2;ratioP2;P2;SDS_P1;SDS_P2;PMS_P1;PMS_P2;Temp;Humidity;BMP_temperature;BMP_pressure;BME280_temperature;BME280_humidity;BME280_pressure;Samples;Min_cycle;Max_cycle;Signal;HPM_P1;HPM_P2
2021/07/17 00:00:17;;;;;;;8.60;3.05;;;20.30;73.00;;;19.14;71.08;96274.75;4966591;28;20039;-73
2021/07/17 00:02:43;;;;;;;5.47;3.25;;;20.20;73.10;;;19.11;70.73;96269.09;4979460;28;20056;-73
2021/07/17 00:05:13;;;;;;;4.65;3.40;;;20.10;73.30;;;19.07;71.63;96262.63;4940277;28;20414;-73
2021/07/17 00:07:40;;;;;;;3.58;3.03;;;20.10;73.40;;;19.04;70.86;96269.25;4929823;28;20050;-73
2021/07/17 00:10:34;;;;;;;5.20;3.38;;;20.10;73.70;;;19.04;72.00;96273.78;4944383;28;20046;-74
2021/07/17 00:12:59;;;;;;;4.38;3.40;;;20.10;73.90;;;18.96;70.94;96272.28;4943988;28;20031;-74
2021/07/17 00:15:25;;;;;;;5.50;3.42;;;20.10;74.00;;;18.92;71.13;96274.59;4956852;28;20131;-71
2021/07/17 00:17:51;;;;;;;4.75;3.35;;;20.10;74.00;;;18.89;71.38;96261.75;4933471;28;20035;-71
2021/07/17 00:20:17;;;;;;;3.88;3.40;;;20.00;74.30;;;18.91;71.72;96259.66;4950650;28;20043;-72
2021/07/17 00:22:43;;;;;;;3.75;3.33;;;20.00;74.80;;;18.88;71.53;96260.13;4952959;28;20046;-71
2021/07/17 00:25:11;;;;;;;4.00;3.30;;;20.00;74.80;;;18.90;72.05;96267.91;4957577;28;20109;-71
2021/07/17 00:27:37;;;;;;;3.63;3.33;;;19.90;75.00;;;18.86;72.18;96277.41;4934373;28;20055;-72
2021/07/17 00:30:04;;;;;;;4.45;3.72;;;20.00;74.80;;;18.85;72.15;96273.94;4937749;28;20043;-71
2021/07/17 00:32:30;;;;;;;4.55;3.88;;;20.00;75.10;;;18.83;72.26;96273.38;4932493;28;20058;-71
2021/07/17 00:34:56;;;;;;;5.10;3.80;;;19.90;75.20;;;18.84;72.70;96277.66;4934186;28;20035;-72
2021/07/17 00:37:21;;;;;;;4.90;4.22;;;19.90;75.10;;;18.81;72.44;96274.66;4957772;28;20105;-71
2021/07/17 00:39:47;;;;;;;4.35;3.95;;;19.90;75.20;;;18.80;73.22;96273.03;4945219;28;20035;-71
2021/07/17 00:42:13;;;;;;;4.50;3.95;;;19.90;75.40;;;18.79;72.38;96280.22;4965700;28;20046;-71
2021/07/17 00:44:39;;;;;;;7.32;4.05;;;19.90;75.30;;;18.74;73.05;96269.44;4977879;28;20039;-72
2021/07/17 00:47:06;;;;;;;6.13;3.88;;;19.90;75.20;;;18.77;73.52;96274.28;4956517;28;20795;-71
2021/07/17 00:49:32;;;;;;;4.95;3.80;;;19.90;75.20;;;18.76;73.52;96267.34;4939775;28;20391;-71
2021/07/17 00:51:57;;;;;;;5.32;4.28;;;19.80;75.40;;;18.75;72.42;96276.38;4962198;28;20058;-71
2021/07/17 00:54:26;;;;;;;5.07;3.92;;;19.80;75.50;;;18.73;74.03;96273.16;4937838;28;20503;-71
2021/07/17 00:56:53;;;;;;;7.07;4.30;;;19.80;75.60;;;18.72;73.77;96274.19;4945756;28;20527;-72
2021/07/17 00:59:22;;;;;;;7.93;4.00;;;19.80;75.50;;;18.69;74.34;96264.00;4946021;28;20062;-71
2021/07/17 01:01:52;;;;;;;5.50;4.60;;;19.80;75.60;;;18.69;74.18;96265.88;4945766;28;20042;-71
2021/07/17 01:04:18;;;;;;;4.20;3.80;;;19.80;75.70;;;18.67;73.71;96258.13;4945049;28;20041;-71
2021/07/17 01:06:44;;;;;;;9.32;4.35;;;19.80;75.70;;;18.68;73.79;96262.41;4940926;28;20065;-71
2021/07/17 01:09:10;;;;;;;5.90;4.60;;;19.80;75.80;;;18.67;73.15;96268.78;4928144;28;20477;-71
2021/07/17 01:11:37;;;;;;;4.97;4.47;;;19.80;75.90;;;18.67;73.94;96258.13;4961715;28;20108;-70
2021/07/17 01:14:03;;;;;;;6.00;4.55;;;19.80;76.00;;;18.65;73.78;96265.53;4908081;28;20109;-72
2021/07/17 01:16:29;;;;;;;6.25;4.80;;;19.80;76.10;;;18.63;74.31;96252.44;4950185;28;20173;-71
2021/07/17 01:18:55;;;;;;;6.93;5.00;;;19.80;76.40;;;18.65;73.92;96258.34;4955374;28;20031;-71
2021/07/17 01:21:21;;;;;;;6.43;5.10;;;19.70;76.50;;;18.64;74.09;96263.91;4941296;28;20063;-71
2021/07/17 01:23:47;;;;;;;7.32;4.95;;;19.70;76.80;;;18.62;75.00;96261.50;4972963;28;20117;-70
2021/07/17 01:26:14;;;;;;;6.72;4.90;;;19.70;76.90;;;18.60;74.82;96260.88;4960604;28;20043;-70
2021/07/17 01:28:40;;;;;;;7.47;4.85;;;19.70;76.90;;;18.57;74.38;96264.03;4937558;28;20032;-70
2021/07/17 01:31:06;;;;;;;6.05;5.03;;;19.70;77.00;;;18.54;74.82;96258.34;4944247;28;20038;-72
2021/07/17 01:33:32;;;;;;;6.35;4.95;;;19.70;77.10;;;18.54;74.70;96259.16;4936011;28;20038;-70
2021/07/17 01:35:58;;;;;;;8.55;4.93;;;19.70;77.20;;;18.52;74.83;96249.78;4938107;28;20081;-71
2021/07/17 01:38:24;;;;;;;6.70;5.38;;;19.60;77.40;;;18.52;75.91;96260.44;4944953;28;20034;-71
2021/07/17 01:40:50;;;;;;;7.50;5.82;;;19.70;77.40;;;18.49;75.00;96260.91;4922133;28;20050;-71
2021/07/17 01:43:16;;;;;;;6.80;5.07;;;19.60;77.90;;;18.47;75.55;96258.47;4948046;28;20699;-71
2021/07/17 01:45:41;;;;;;;7.25;5.32;;;19.60;77.90;;;18.47;75.65;96268.31;4923062;28;20030;-71
2021/07/17 01:48:08;;;;;;;6.97;5.60;;;19.60;78.00;;;18.45;75.68;96265.06;4962138;28;20045;-71
2021/07/17 01:50:36;;;;;;;7.38;5.40;;;19.60;78.20;;;18.44;75.40;96274.13;4931382;28;20054;-71
2021/07/17 01:53:02;;;;;;;7.55;5.85;;;19.50;78.50;;;18.38;76.52;96264.41;4958264;28;20030;-72
2021/07/17 01:55:28;;;;;;;6.97;5.38;;;19.50;78.60;;;18.38;76.18;96270.53;4961179;28;20045;-72
2021/07/17 01:57:54;;;;;;;8.63;5.80;;;19.50;78.60;;;18.39;76.00;96266.84;4938623;28;20451;-71
2021/07/17 02:00:20;;;;;;;7.22;6.03;;;19.60;78.50;;;18.39;76.74;96255.38;4951165;28;20473;-72
2021/07/17 02:02:46;;;;;;;8.15;6.28;;;19.60;78.30;;;18.39;76.19;96250.84;4942622;28;20418;-71
2021/07/17 02:05:12;;;;;;;8.57;6.30;;;19.60;78.50;;;18.40;77.25;96249.81;4943540;28;20122;-71
2021/07/17 02:07:38;;;;;;;8.52;6.10;;;19.50;78.60;;;18.38;76.30;96248.44;4951963;28;20046;-71
2021/07/17 02:10:22;;;;;;;7.40;5.88;;;19.50;78.90;;;18.42;79.02;96246.91;4961407;28;20035;-71
2021/07/17 02:13:03;;;;;;;7.28;5.97;;;19.50;78.90;;;18.41;77.98;96247.94;4942368;28;20483;-71
2021/07/17 02:15:32;;;;;;;8.45;6.40;;;19.50;79.10;;;18.40;77.93;96249.00;4954266;28;20034;-71
2021/07/17 02:17:58;;;;;;;6.68;5.93;;;19.40;79.30;;;18.38;76.68;96248.44;4919033;28;20035;-71
2021/07/17 02:20:24;;;;;;;8.05;6.32;;;19.50;79.20;;;18.36;77.45;96246.81;4933945;28;20031;-72
2021/07/17 02:22:50;;;;;;;7.25;6.50;;;19.50;79.20;;;18.35;76.94;96239.88;4955713;28;20046;-71
2021/07/17 02:25:15;;;;;;;8.02;6.50;;;19.50;79.30;;;18.33;77.10;96239.28;4949375;28;20402;-71
2021/07/17 02:27:41;;;;;;;8.20;6.70;;;19.50;79.00;;;18.33;77.62;96235.78;4972560;28;20122;-70
2021/07/17 02:30:08;;;;;;;9.10;6.18;;;19.50;79.10;;;18.33;77.76;96235.78;4926972;28;20125;-71
2021/07/17 02:32:34;;;;;;;7.55;6.53;;;19.50;79.30;;;18.30;77.17;96231.75;4960163;28;20084;-71
2021/07/17 02:35:00;;;;;;;9.82;6.47;;;19.40;79.30;;;18.29;77.04;96235.44;4953713;28;20034;-71
2021/07/17 02:37:26;;;;;;;7.53;6.45;;;19.40;79.50;;;18.26;77.50;96227.94;4953880;28;20030;-71
2021/07/17 02:39:52;;;;;;;8.00;7.15;;;19.30;79.80;;;18.26;76.79;96229.78;4938113;28;20397;-70
2021/07/17 02:42:18;;;;;;;7.85;7.03;;;19.40;79.60;;;18.25;77.92;96233.50;4949428;28;20045;-71
2021/07/17 02:44:44;;;;;;;8.13;6.97;;;19.40;79.70;;;18.23;78.04;96236.41;4962617;28;20031;-71
2021/07/17 02:47:09;;;;;;;12.43;7.00;;;19.40;79.50;;;18.21;78.22;96232.34;4935097;28;20479;-71
2021/07/17 02:49:35;;;;;;;10.68;7.63;;;19.40;79.70;;;18.16;77.95;96230.38;4935681;28;20474;-73
2021/07/17 02:52:01;;;;;;;8.65;6.70;;;19.30;79.90;;;18.14;78.38;96242.31;4950102;28;20031;-71
2021/07/17 02:54:27;;;;;;;8.90;7.18;;;19.30;79.90;;;18.10;78.01;96239.28;4942588;28;20041;-71
2021/07/17 02:56:52;;;;;;;10.38;7.28;;;19.20;80.10;;;18.06;78.16;96230.97;4959164;28;20063;-71
2021/07/17 02:59:18;;;;;;;8.10;6.75;;;19.10;80.20;;;18.03;78.22;96236.75;4951658;28;20074;-71
2021/07/17 03:01:44;;;;;;;8.82;7.22;;;19.20;80.20;;;18.00;78.21;96241.72;4942687;28;20112;-71
2021/07/17 03:04:09;;;;;;;9.55;7.70;;;19.10;80.10;;;17.97;78.85;96243.00;4952132;28;20042;-71
2021/07/17 03:06:35;;;;;;;9.77;7.55;;;19.10;80.40;;;17.94;78.52;96248.00;4969730;28;20042;-71
2021/07/17 03:09:04;;;;;;;7.90;7.10;;;19.10;80.30;;;17.92;78.95;96255.41;4941736;28;20121;-71
2021/07/17 03:11:32;;;;;;;10.05;7.28;;;19.00;80.50;;;17.88;79.56;96260.38;4969278;28;20046;-71
2021/07/17 03:13:59;;;;;;;10.68;7.97;;;19.00;80.50;;;17.86;78.42;96267.75;4921835;28;20034;-72
2021/07/17 03:16:25;;;;;;;8.25;7.38;;;19.00;80.60;;;17.83;78.88;96273.53;4936022;28;20051;-72
2021/07/17 03:18:52;;;;;;;13.13;7.80;;;18.90;80.70;;;17.82;78.72;96263.13;4954485;28;20057;-70
2021/07/17 03:21:18;;;;;;;8.25;7.40;;;19.00;81.00;;;17.81;78.96;96254.34;4934265;28;20149;-68
2021/07/17 03:23:44;;;;;;;8.98;8.00;;;19.00;81.10;;;17.81;78.81;96259.66;4954602;28;20031;-67
2021/07/17 03:26:10;;;;;;;9.90;8.40;;;18.90;81.10;;;17.81;78.69;96259.66;4944869;28;20058;-74
2021/07/17 03:28:36;;;;;;;11.88;7.72;;;18.90;81.30;;;17.75;79.41;96261.41;4935707;28;20035;-69
2021/07/17 03:31:02;;;;;;;10.30;8.02;;;18.90;81.40;;;17.78;79.74;96254.00;4921213;28;20042;-73
2021/07/17 03:33:29;;;;;;;10.60;8.10;;;18.90;81.50;;;17.78;79.16;96261.97;4943235;28;20480;-71
2021/07/17 03:35:57;;;;;;;13.02;8.35;;;19.00;81.50;;;17.78;79.50;96254.00;4936999;28;20035;-71
2021/07/17 03:38:23;;;;;;;11.30;8.80;;;18.90;81.60;;;17.77;79.87;96266.47;4937934;28;20042;-72
2021/07/17 03:40:49;;;;;;;10.02;9.02;;;18.90;81.50;;;17.75;79.38;96264.06;4936392;28;20058;-71
2021/07/17 03:43:15;;;;;;;11.40;8.32;;;19.00;81.50;;;17.74;79.75;96275.75;4969868;28;20062;-72
2021/07/17 03:45:41;;;;;;;12.77;8.80;;;18.90;81.80;;;17.71;79.93;96276.19;4936992;28;20031;-71
2021/07/17 03:48:06;;;;;;;11.13;9.60;;;18.80;82.10;;;17.71;80.45;96270.88;4937284;28;20774;-71
2021/07/17 03:50:32;;;;;;;10.35;8.77;;;18.90;82.30;;;17.69;80.32;96274.81;4952310;28;20074;-72
2021/07/17 03:52:58;;;;;;;9.50;8.60;;;18.80;82.30;;;17.70;80.58;96282.56;4970611;28;20109;-72
2021/07/17 03:55:24;;;;;;;10.75;9.65;;;18.80;82.50;;;17.72;80.91;96287.66;4929186;28;20113;-72
2021/07/17 03:57:49;;;;;;;13.15;9.40;;;18.90;82.50;;;17.73;81.01;96284.75;4933172;28;20086;-72
2021/07/17 04:00:16;;;;;;;11.95;9.90;;;19.00;82.40;;;17.79;81.02;96296.34;4927908;28;20090;-71
2021/07/17 04:02:43;;;;;;;10.70;9.32;;;19.00;82.40;;;17.81;80.78;96291.59;4934570;28;20050;-72
2021/07/17 04:05:10;;;;;;;10.93;9.82;;;19.10;82.30;;;17.83;80.78;96294.03;4951789;28;20031;-72
2021/07/17 04:07:36;;;;;;;14.57;9.68;;;19.10;82.10;;;17.86;80.26;96298.88;4939317;28;20073;-73
2021/07/17 04:10:05;;;;;;;10.77;9.65;;;19.10;81.80;;;17.87;81.00;96301.31;4929107;28;20042;-72
2021/07/17 04:12:31;;;;;;;11.35;9.35;;;19.10;81.90;;;17.90;80.93;96300.06;4931623;29;20043;-72
2021/07/17 04:14:57;;;;;;;11.05;9.48;;;19.10;81.80;;;17.92;80.54;96308.63;4948339;28;20092;-73
2021/07/17 04:17:24;;;;;;;13.73;10.00;;;19.20;81.90;;;17.94;80.81;96298.56;4942294;28;20070;-72
2021/07/17 04:19:50;;;;;;;12.20;9.60;;;19.20;81.70;;;17.92;80.57;96303.31;4965710;28;20038;-72
2021/07/17 04:22:16;;;;;;;12.20;10.48;;;19.20;81.60;;;17.95;80.85;96305.50;4944359;28;20192;-72
2021/07/17 04:24:41;;;;;;;11.70;9.98;;;19.20;81.40;;;17.95;80.94;96308.16;4941156;29;20055;-71
2021/07/17 04:27:07;;;;;;;15.70;10.90;;;19.30;81.50;;;17.95;81.40;96310.81;4941183;28;20499;-71
2021/07/17 04:29:33;;;;;;;12.13;10.13;;;19.10;81.70;;;17.95;80.91;96305.50;4960343;28;20515;-70
2021/07/17 04:31:59;;;;;;;13.27;10.85;;;19.30;81.80;;;17.95;81.43;96308.16;4951293;28;20122;-73
2021/07/17 04:34:24;;;;;;;12.50;10.48;;;19.30;81.70;;;18.01;81.55;96313.38;4939792;28;20027;-71
2021/07/17 04:36:50;;;;;;;14.57;11.60;;;19.40;81.60;;;18.03;81.24;96302.50;4961416;28;20075;-72
2021/07/17 04:39:17;;;;;;;13.25;11.52;;;19.40;81.50;;;18.03;80.77;96303.28;4940140;28;20078;-72
2021/07/17 04:41:43;;;;;;;14.85;11.82;;;19.40;81.70;;;18.05;81.52;96311.06;4940836;28;20125;-72
2021/07/17 04:44:08;;;;;;;13.60;12.05;;;19.40;81.60;;;18.05;81.70;96298.56;4945478;28;20565;-72
2021/07/17 04:46:34;;;;;;;14.88;12.98;;;19.50;81.60;;;18.08;81.48;96301.78;4943708;28;20066;-72
2021/07/17 04:49:00;;;;;;;16.05;13.35;;;19.40;81.70;;;18.08;80.94;96299.94;4956070;28;20118;-72
2021/07/17 04:51:26;;;;;;;15.43;12.95;;;19.30;82.20;;;18.08;81.63;96294.63;4956302;28;20099;-72
2021/07/17 04:53:51;;;;;;;16.23;13.10;;;19.40;82.10;;;18.10;81.73;96289.88;4956465;28;20038;-72
2021/07/17 04:56:17;;;;;;;15.07;12.70;;;19.40;82.00;;;18.14;80.99;96291.06;4952074;28;20461;-72
2021/07/17 04:58:43;;;;;;;18.70;13.80;;;19.50;82.10;;;18.19;81.77;96288.50;4937208;29;20219;-72
2021/07/17 05:01:09;;;;;;;16.08;14.40;;;19.60;81.80;;;18.22;82.11;96272.06;4920444;28;20043;-71
2021/07/17 05:03:35;;;;;;;20.08;15.32;;;19.60;81.90;;;18.28;81.34;96283.63;4956902;28;20031;-72
2021/07/17 05:06:02;;;;;;;19.85;16.30;;;19.60;82.10;;;18.31;82.10;96281.28;4956007;28;20046;-72
2021/07/17 05:08:28;;;;;;;19.85;16.90;;;19.70;82.00;;;18.39;81.55;96282.00;4956221;28;20514;-72
2021/07/17 05:10:54;;;;;;;20.38;17.45;;;19.70;82.00;;;18.42;81.78;96273.53;4946847;28;20038;-72
2021/07/17 05:13:19;;;;;;;20.52;17.27;;;19.70;82.10;;;18.46;81.88;96277.34;4949012;28;20043;-72
2021/07/17 05:15:45;;;;;;;25.58;19.10;;;19.80;82.20;;;18.50;82.10;96275.84;4954292;28;20110;-73
2021/07/17 05:18:11;;;;;;;26.73;19.75;;;19.80;82.30;;;18.52;81.34;96271.09;4930778;28;20031;-72
2021/07/17 05:20:40;;;;;;;23.35;18.40;;;19.90;82.10;;;18.60;81.64;96278.72;4955921;28;20039;-72
2021/07/17 05:23:06;;;;;;;23.40;19.95;;;20.00;81.80;;;18.66;82.35;96283.94;4955315;28;20050;-72
2021/07/17 05:25:32;;;;;;;25.45;19.98;;;20.10;81.70;;;18.73;81.50;96288.34;4937004;28;20035;-71
2021/07/17 05:27:58;;;;;;;26.05;19.55;;;20.10;81.60;;;18.78;81.61;96286.56;4939757;28;20035;-72
2021/07/17 05:30:24;;;;;;;24.92;20.33;;;20.20;81.30;;;18.82;81.41;96277.09;4939883;28;20027;-72
2021/07/17 05:32:49;;;;;;;26.02;19.80;;;20.20;81.10;;;18.86;81.56;96275.56;4939778;28;20482;-72
2021/07/17 05:35:15;;;;;;;24.52;19.85;;;20.30;81.00;;;18.91;81.46;96270.31;4960524;28;20050;-72
2021/07/17 05:37:41;;;;;;;29.80;24.58;;;20.40;80.80;;;19.06;81.70;96282.34;4934890;28;20125;-72
2021/07/17 05:40:07;;;;;;;23.70;20.65;;;20.50;80.40;;;19.12;81.19;96281.38;4923484;28;20093;-73
2021/07/17 05:42:33;;;;;;;32.47;21.20;;;20.60;79.90;;;19.16;81.23;96288.66;4955673;28;20062;-72
2021/07/17 05:44:59;;;;;;;23.55;19.75;;;20.50;79.80;;;19.21;81.34;96283.41;4939438;28;20051;-72
2021/07/17 05:47:26;;;;;;;26.98;18.90;;;20.60;79.50;;;19.28;80.02;96286.75;4939400;28;20035;-72
2021/07/17 05:49:54;;;;;;;22.98;18.90;;;20.70;79.20;;;19.35;80.25;96275.94;4938051;28;20110;-72
2021/07/17 05:52:19;;;;;;;27.90;20.25;;;20.80;79.00;;;19.36;80.00;96277.56;4956062;28;20152;-71
2021/07/17 05:54:45;;;;;;;25.52;20.50;;;20.70;79.30;;;19.41;79.97;96290.97;4955435;28;20444;-71
2021/07/17 05:57:11;;;;;;;27.92;21.80;;;20.80;78.90;;;19.41;79.70;96285.66;4954813;28;20518;-72
2021/07/17 05:59:37;;;;;;;25.00;20.85;;;20.60;79.20;;;19.40;80.06;96297.38;4972545;28;20038;-71
2021/07/17 06:02:04;;;;;;;26.83;20.80;;;20.70;79.20;;;19.43;80.17;96298.75;4939210;28;20114;-71
2021/07/17 06:04:30;;;;;;;24.42;20.77;;;20.70;79.00;;;19.47;80.07;96305.25;4935004;28;20414;-71
2021/07/17 06:06:56;;;;;;;27.00;20.55;;;20.80;78.70;;;19.51;79.04;96309.84;4955131;28;20055;-72
2021/07/17 06:09:22;;;;;;;30.15;22.23;;;20.90;78.60;;;19.54;79.32;96305.91;4954545;28;20499;-71
2021/07/17 06:11:47;;;;;;;29.75;21.83;;;20.90;78.50;;;19.55;79.35;96310.22;4930932;28;20052;-72
2021/07/17 06:14:13;;;;;;;25.48;21.20;;;20.90;78.40;;;19.55;79.93;96313.69;4937877;28;20035;-71
2021/07/17 06:16:39;;;;;;;27.30;20.23;;;20.90;78.30;;;19.57;79.54;96311.59;4923505;28;20065;-71
2021/07/17 06:19:04;;;;;;;23.65;20.85;;;20.90;78.40;;;19.55;78.30;96308.34;4937721;28;20039;-72
2021/07/17 06:21:30;;;;;;;24.42;20.50;;;20.80;78.50;;;19.57;78.99;96308.91;4938312;28;20129;-71
2021/07/17 06:23:57;;;;;;;25.33;21.20;;;20.90;78.40;;;19.58;78.27;96305.19;4954818;28;20043;-72
2021/07/17 06:26:22;;;;;;;28.60;20.98;;;21.00;78.10;;;19.64;79.33;96315.94;4937992;28;20037;-71
2021/07/17 06:28:48;;;;;;;28.17;21.17;;;21.10;77.90;;;19.66;78.84;96309.31;4935363;29;20412;-71
2021/07/17 06:31:15;;;;;;;24.30;21.05;;;21.10;77.80;;;19.70;78.55;96307.81;4937265;28;20039;-68
2021/07/17 06:33:40;;;;;;;31.90;21.60;;;21.10;77.40;;;19.74;78.64;96316.16;4953020;28;20062;-70
2021/07/17 06:36:08;;;;;;;30.27;22.05;;;21.10;77.70;;;19.76;78.43;96314.03;4956611;28;20031;-71
2021/07/17 06:38:33;;;;;;;26.70;22.10;;;21.10;77.50;;;19.74;78.22;96316.94;4953005;28;20503;-69
2021/07/17 06:40:59;;;;;;;28.33;22.83;;;21.10;77.50;;;19.78;78.64;96311.94;4955793;28;20089;-73
2021/07/17 06:43:25;;;;;;;27.52;21.13;;;21.10;77.60;;;19.77;78.54;96313.78;4921868;28;20121;-69
2021/07/17 06:45:50;;;;;;;26.58;21.23;;;21.10;77.60;;;19.76;78.97;96319.38;4928462;28;20037;-70
2021/07/17 06:48:16;;;;;;;29.02;22.05;;;21.00;77.70;;;19.77;78.56;96326.34;4930516;29;20126;-70
2021/07/17 06:50:43;;;;;;;30.05;22.98;;;21.00;78.00;;;19.75;78.14;96339.13;4934717;29;20039;-73
2021/07/17 06:53:09;;;;;;;27.38;21.63;;;21.00;77.80;;;19.72;77.63;96344.94;4947052;28;20046;-69
2021/07/17 06:55:34;;;;;;;27.48;21.15;;;20.90;77.90;;;19.72;78.38;96334.25;4954301;28;20035;-70
2021/07/17 06:58:00;;;;;;;30.38;22.65;;;21.00;77.60;;;19.72;78.48;96328.91;4942334;29;20118;-71
2021/07/17 07:00:26;;;;;;;29.08;23.08;;;21.00;77.80;;;19.73;77.94;96327.88;4925371;28;20211;-70
2021/07/17 07:02:52;;;;;;;25.73;20.98;;;21.10;77.50;;;19.75;77.80;96339.91;4934487;29;20043;-71
2021/07/17 07:05:17;;;;;;;27.73;21.75;;;21.10;77.50;;;19.76;77.37;96348.75;4950096;28;20138;-71
2021/07/17 07:07:43;;;;;;;29.52;21.08;;;21.10;77.20;;;19.75;77.85;96349.78;4951055;28;20087;-71
2021/07/17 07:10:09;;;;;;;25.33;20.58;;;21.10;77.50;;;19.75;78.43;96336.44;4934526;28;20102;-69
2021/07/17 07:12:39;;;;;;;26.90;19.70;;;21.10;77.10;;;19.77;77.73;96345.00;4922804;29;20073;-70
2021/07/17 07:15:09;;;;;;;27.73;20.35;;;21.10;77.20;;;19.81;78.30;96343.47;4952025;28;20046;-70
2021/07/17 07:17:35;;;;;;;26.92;20.35;;;21.20;77.00;;;19.83;77.48;96338.72;4927467;28;20046;-73
2021/07/17 07:20:02;;;;;;;25.35;21.10;;;21.30;77.10;;;19.88;78.37;96338.78;4936709;28;20541;-73
2021/07/17 07:22:28;;;;;;;28.38;19.75;;;21.30;76.90;;;19.93;77.49;96344.22;4942809;28;20071;-73
2021/07/17 07:24:53;;;;;;;28.83;20.48;;;21.50;76.70;;;19.94;78.03;96347.72;4943003;28;20074;-72
2021/07/17 07:27:19;;;;;;;24.92;20.02;;;21.30;76.60;;;19.90;78.21;96344.69;4953410;28;20499;-75
2021/07/17 07:29:45;;;;;;;24.27;18.75;;;21.20;76.80;;;19.94;77.25;96345.84;4934356;29;20035;-74
2021/07/17 07:32:11;;;;;;;24.25;19.50;;;21.40;77.10;;;19.95;77.26;96344.81;4935192;29;20043;-73
2021/07/17 07:34:36;;;;;;;24.30;19.50;;;21.40;76.60;;;20.00;78.23;96346.75;4918581;29;20535;-73
2021/07/17 07:37:02;;;;;;;25.25;19.05;;;21.50;76.40;;;20.02;78.08;96347.31;4949622;28;20035;-73
2021/07/17 07:39:28;;;;;;;25.25;18.95;;;21.40;76.20;;;20.06;77.07;96340.41;4936550;28;20097;-73
2021/07/17 07:41:54;;;;;;;25.65;18.90;;;21.50;75.80;;;20.09;77.63;96340.75;4940177;28;20089;-73
2021/07/17 07:44:19;;;;;;;26.85;18.90;;;21.60;75.80;;;20.15;76.18;96347.81;4952498;28;20026;-75
2021/07/17 07:46:45;;;;;;;23.85;18.95;;;21.60;75.40;;;20.21;76.53;96338.00;4965601;28;20050;-75
2021/07/17 07:49:12;;;;;;;22.77;17.92;;;21.70;75.30;;;20.28;76.47;96338.63;4936508;28;20049;-72
2021/07/17 07:51:37;;;;;;;23.42;17.65;;;21.80;75.10;;;20.38;76.75;96343.34;4955333;28;20121;-75
2021/07/17 07:54:03;;;;;;;20.80;18.20;;;21.90;75.20;;;20.43;76.84;96344.25;4937543;29;20074;-75
2021/07/17 07:56:29;;;;;;;22.67;17.83;;;22.00;74.40;;;20.51;76.59;96336.84;4938491;28;20122;-74
2021/07/17 07:58:55;;;;;;;20.48;17.52;;;22.10;74.30;;;20.59;75.84;96339.91;4921857;29;20114;-73
2021/07/17 08:01:20;;;;;;;23.33;17.83;;;22.20;74.30;;;20.69;76.50;96348.09;4930582;28;20077;-76
2021/07/17 08:03:46;;;;;;;24.25;16.60;;;22.30;74.10;;;20.75;75.63;96344.41;4974504;28;20522;-69
2021/07/17 08:06:12;;;;;;;24.38;18.33;;;22.40;73.70;;;20.79;76.00;96345.53;4940516;28;20488;-72
2021/07/17 08:08:37;;;;;;;22.70;17.33;;;22.20;73.40;;;20.83;75.29;96347.75;4957354;28;20027;-71
2021/07/17 08:11:03;;;;;;;24.80;17.52;;;22.40;73.20;;;20.87;74.74;96346.19;4967730;28;20035;-71
2021/07/17 08:13:29;;;;;;;21.70;16.95;;;22.40;73.00;;;20.89;74.64;96349.41;4921701;29;20537;-72
2021/07/17 08:15:57;;;;;;;23.65;16.75;;;22.40;73.00;;;20.97;74.96;96347.09;4941609;28;20085;-72
2021/07/17 08:18:23;;;;;;;25.23;17.27;;;22.60;72.50;;;21.04;74.25;96353.06;4957603;28;20027;-72
2021/07/17 08:20:49;;;;;;;22.27;17.52;;;22.60;72.20;;;21.10;74.69;96345.94;4969630;28;20599;-76
2021/07/17 08:23:15;;;;;;;19.92;16.27;;;22.70;71.90;;;21.15;74.17;96351.34;4956413;28;20081;-73
2021/07/17 08:25:41;;;;;;;21.30;17.02;;;22.70;72.00;;;21.19;74.22;96347.09;4970560;28;20031;-70
2021/07/17 08:28:06;;;;;;;21.55;17.05;;;22.80;71.80;;;21.24;74.60;96352.53;4973752;28;20059;-72
2021/07/17 08:30:33;;;;;;;19.98;16.90;;;22.80;71.80;;;21.27;73.69;96343.22;4937551;28;20039;-72
2021/07/17 08:32:59;;;;;;;21.90;15.82;;;22.70;71.30;;;21.30;73.29;96340.88;4937187;28;20512;-71
2021/07/17 08:35:25;;;;;;;24.88;18.70;;;22.90;71.60;;;21.32;73.82;96337.94;4923921;28;20043;-72
2021/07/17 08:37:50;;;;;;;21.92;18.27;;;22.70;71.50;;;21.29;73.29;96343.78;4942540;28;20463;-72
2021/07/17 08:40:17;;;;;;;22.20;18.90;;;22.60;71.40;;;21.30;72.93;96335.50;4939629;28;20027;-71
2021/07/17 08:42:46;;;;;;;26.88;18.38;;;22.70;71.30;;;21.39;72.59;96333.19;4940628;28;20131;-71
2021/07/17 08:45:12;;;;;;;22.85;18.45;;;22.90;71.00;;;21.45;73.45;96337.53;4972967;28;20035;-72
2021/07/17 08:47:40;;;;;;;21.05;17.40;;;23.10;71.00;;;21.55;72.75;96336.84;4955149;28;20039;-71
2021/07/17 08:50:09;;;;;;;20.45;17.42;;;23.30;70.60;;;21.65;72.97;96336.94;4940777;28;20039;-70
2021/07/17 08:52:34;;;;;;;23.27;18.08;;;23.30;70.00;;;21.69;73.01;96332.69;4923216;29;20031;-72
2021/07/17 08:55:04;;;;;;;22.45;17.75;;;23.20;70.10;;;21.77;72.82;96332.25;4921030;29;20043;-72
2021/07/17 08:57:37;;;;;;;19.02;16.58;;;23.40;69.90;;;21.82;72.24;96334.16;4937980;28;20105;-71
2021/07/17 09:00:23;;;;;;;18.10;14.88;;;23.40;69.80;;;21.84;71.15;96329.34;4940302;28;20023;-72
2021/07/17 09:02:55;;;;;;;20.38;15.50;;;23.30;69.30;;;21.79;71.36;96330.13;4952422;28;20035;-75
2021/07/17 09:05:22;;;;;;;21.80;14.15;;;23.10;70.40;;;21.79;72.17;96332.78;4950585;28;20518;-71
2021/07/17 09:07:48;;;;;;;15.95;13.77;;;23.20;70.40;;;21.83;72.01;96336.56;4955958;28;20561;-72
2021/07/17 09:11:03;;;;;;;37.95;29.90;;;23.50;69.90;;;21.91;70.72;96335.28;4939535;28;20026;-72
2021/07/17 09:13:33;;;;;;;25.73;20.95;;;23.50;69.50;;;21.95;70.79;96331.03;4943860;28;20039;-73
2021/07/17 09:16:07;;;;;;;20.95;15.73;;;23.50;69.10;;;21.99;71.29;96327.63;4920420;29;20561;-73
2021/07/17 09:18:46;;;;;;;19.17;14.32;;;23.60;69.50;;;22.02;70.93;96327.09;4945893;28;20054;-71
2021/07/17 09:21:36;;;;;;;17.45;13.25;;;23.60;68.80;;;22.02;70.35;96332.47;4960449;28;20044;-72
2021/07/17 09:24:07;;;;;;;;;;;23.60;68.50;;;22.06;70.31;96327.41;4936370;29;20116;-72
2021/07/17 09:26:37;;;;;;;;;;;23.60;68.90;;;22.06;70.37;96331.97;4967033;28;19969;-71
2021/07/17 09:29:10;;;;;;;17.25;12.02;;;23.50;69.00;;;22.04;70.52;96334.06;4968564;28;19918;-75
2021/07/17 09:31:48;;;;;;;16.88;12.15;;;23.50;69.00;;;22.00;70.54;96329.22;4939759;28;20035;-75
2021/07/17 09:34:15;;;;;;;17.10;12.88;;;23.40;69.60;;;21.92;71.06;96324.31;4951135;28;20567;-71
2021/07/17 09:37:10;;;;;;;17.25;13.23;;;23.10;69.90;;;21.81;70.50;96332.53;4957209;28;20090;-73
2021/07/17 09:39:40;;;;;;;18.60;13.10;;;22.90;70.40;;;21.69;71.06;96327.31;4954786;28;20041;-74
2021/07/17 09:42:09;;;;;;;19.30;12.63;;;22.70;71.20;;;21.54;71.29;96336.03;4923609;28;20105;-72
2021/07/17 09:44:35;;;;;;;20.38;13.25;;;22.50;72.00;;;21.42;71.14;96331.88;4942003;28;20530;-77
2021/07/17 09:47:03;;;;;;;17.73;13.55;;;22.40;72.30;;;21.34;72.30;96335.81;4925764;28;20078;-77
2021/07/17 09:49:29;;;;;;;16.67;13.68;;;22.40;72.40;;;21.25;71.71;96327.41;4926758;29;20102;-76
2021/07/17 09:52:17;;;;;;;21.20;13.45;;;22.30;72.80;;;21.16;72.62;96326.22;4919603;29;20043;-77
2021/07/17 09:55:14;;;;;;;30.90;23.63;;;22.30;73.10;;;21.10;72.84;96320.00;4933119;28;20487;-77
2021/07/17 09:57:40;;;;;;;18.63;15.02;;;22.20;73.20;;;21.05;73.21;96321.81;4941340;28;20121;-75
2021/07/17 10:00:10;;;;;;;17.75;14.32;;;22.10;74.00;;;21.01;73.23;96326.03;4935977;28;20038;-76
2021/07/17 10:02:36;;;;;;;19.27;14.00;;;22.10;74.40;;;20.95;73.15;96321.69;4949682;28;20031;-75
2021/07/17 10:05:15;;;;;;;17.88;13.98;;;22.00;74.90;;;20.90;74.84;96330.44;4958553;28;20034;-76
2021/07/17 10:07:40;;;;;;;20.15;14.93;;;22.00;75.40;;;20.85;73.65;96321.56;4945753;28;20031;-76
2021/07/17 10:10:07;;;;;;;20.80;15.00;;;22.10;75.70;;;20.82;74.49;96316.69;4943419;28;20035;-76